Aérodrome :
LOGIN :

S'inscrire | Disclaimer

   EN    FR    IT 

 










Légende :    VFR   VFR Marginal   IFR   IFR Intensif   IFR Très Intensif
Visi : 
Plafond : 
>= 8 km
>= 3000ft
5 à 8 km
1000 à 3000 ft
1500m à 5 km
500 à 1000 ft
800 à 1500m
200 à 500 ft
< 800m
< 200 ft
Symboles :   Orages  Brouillard  Fortes neiges  Fortes précipitations  Vent > 20 kt
SIGMETs :   Divers  Orages  Givrage  Turbulence  Onde Orograph.  Cendres Volcan.







- Altitude de l'aérodrome : 26 ft
- Code IATA : BIA
- Voir les cartes d'approche


LFKB - Bastia

DERNIER METAR :
  • 231600Z 16005KT 9999 FEW030 BKN250 13/09 Q1016 NOSIG

METARs EXPIRÉS :
  • 231530Z 15006KT 9999 FEW030 BKN250 14/09 Q1016 NOSIG
  • 231500Z 15007KT 9999 FEW030 SCT250 15/09 Q1016 NOSIG
  • 231430Z 14006KT 120V180 9999 FEW030 BKN250 16/10 Q1016 NOSIG
  • 231400Z 14008KT 110V170 9999 FEW030 BKN250 15/11 Q1017 NOSIG
  • 231330Z 15008KT 9999 FEW030 SCT250 15/11 Q1017 NOSIG
  • 231300Z 13008KT 9999 FEW030 SCT250 15/11 Q1017 NOSIG

TAF TAF LFKB
Valide du 23 à 15h jusqu'au 24 à 15h UTC


231400Z 2315/2415 14010KT 9999 FEW030 BKN250
BECMG 2317/2319 VRB03KT
BECMG 2406/2408 14010KT SCT030 FEW040CB BKN070
PROB30
TEMPO 2406/2415 TSRA TX16/2412Z TN07/2403Z
ATIS : +33 4 95 59 19 40
Pas de NOTAMs connus pour ce terrain.



MET'MAP, la Météo Aéronautique d'un coup d'oeil ! - Copyright ORBIFLY Décembre 2007 - Disclaimer

ORBIFLY MET'MAP TEAM :

Programmation & Développement : Alexandra Zaïnal
Conception & Développement : Baudouin d'Aumeries
Co-Programmation & Développement : Marc-Olivier Méhu
Soutien technique & logistique : Manuel Goepfert

Contact : metmap@orbifly.com




SOURCES & CREDITS :

   NOAA